ADDS METAR Data INFO
IDs: Format: Raw Decoded Include TAF

Data at: 1715 UTC 23 Oct 2017

KAJR 231655Z AUTO 25004KT 5SM +RA SCT005 BKN026 OVC050 17/16 A2988 RMK AO2 T01660161
KAJR 231635Z AUTO 28007KT 1SM +RA BKN007 OVC014 17/16 A2989 RMK AO2 VIS 1/4V3 T01670162
KAJR 231615Z AUTO 20009G20KT 160V240 2 1/2SM +RA SCT005 BKN011 OVC031 19/18 A2987 RMK AO2 T01880182
KAJR 231555Z AUTO 17011G17KT 140V210 2SM +RA OVC007 19/19 A2987 RMK AO2 LTG DSNT SW T01900185
KAJR 231535Z AUTO 20011G22KT 2SM +RA BKN007 OVC015 19/19 A2987 RMK AO2 T01900185
KAJR 231515Z AUTO 17009G22KT 5SM RA BKN004 BKN009 OVC014 19/19 A2989 RMK AO2 T01900185
KAJR 231455Z AUTO 18011G20KT 4SM RA BKN004 OVC008 19/19 A2990 RMK AO2 T01900185
KAJR 231435Z AUTO 16013G19KT 4SM RA BKN004 BKN008 OVC014 19/18 A2990 RMK AO2 T01880184
KAJR 231415Z AUTO 16007G14KT 1 1/2SM +RA BKN004 OVC008 19/18 A2992 RMK AO2 T01860182
KAJR 231355Z AUTO 15006KT 7SM RA BKN004 BKN019 OVC043 19/18 A2993 RMK AO2 T01850182
KAJR 231335Z AUTO 15005KT 4SM -RA BKN002 OVC009 18/18 A2994 RMK AO2 T01820180
KAJR 231315Z AUTO 16004KT 4SM -RA BKN002 BKN008 OVC019 18/18 A2995 RMK AO2 T01830180
KAJR 231255Z AUTO 14005KT 5SM -RA BKN002 BKN006 OVC033 18/18 A2996 RMK AO2 T01820180
KAJR 231235Z AUTO 16004KT 3SM RA BKN006 BKN015 OVC035 18/18 A2996 RMK AO2 T01810177
KAJR 231215Z AUTO 15009KT 1 3/4SM +RA BKN007 OVC014 18/18 A2997 RMK AO2 T01820177
KAJR 231155Z AUTO 16008KT 7SM +RA SCT002 BKN007 OVC019 18/18 A2997 RMK AO2 T01810178 10181 20173
KAJR 231135Z AUTO 12009KT 5SM RA BKN004 BKN009 OVC015 18/18 A2998 RMK AO2 T01800177
KAJR 231115Z AUTO 14006KT 3SM +RA BKN002 BKN008 OVC014 18/18 A2999 RMK AO2 T01800177
KAJR 231055Z AUTO 11006KT 2 1/2SM RA OVC002 18/18 A2999 RMK AO2 T01800176
KAJR 231035Z AUTO 11008KT 2SM -RA OVC004 18/18 A3000 RMK AO2 T01800176
KAJR 231015Z AUTO 13007KT 4SM -RA OVC004 18/18 A3000 RMK AO2 T01780175
KAJR 230955Z AUTO 10009KT 2 1/2SM -RA OVC002 18/18 A3001 RMK AO2 T01780175
KAJR 230935Z AUTO 11007KT 4SM -RA OVC002 18/18 A3002 RMK AO2 T01780175
KAJR 230915Z AUTO 10007KT 080V140 3SM -RA OVC002 18/18 A3003 RMK AO2 T01780175
KAJR 230855Z AUTO 10007KT 4SM -RA OVC002 18/18 A3004 RMK AO2 T01770175
KAJR 230835Z AUTO 11006KT 3SM -RA OVC002 18/18 A3006 RMK AO2 T01760175
KAJR 230815Z AUTO 11006KT 3/4SM RA OVC002 18/17 A3007 RMK AO2 T01750173
KAJR 230755Z AUTO 11008KT 1/4SM -RA OVC002 18/17 A3008 RMK AO2 T01750171
KAJR 230735Z AUTO 10007KT 2SM RA OVC002 18/17 A3010 RMK AO2 T01750170
KAJR 230715Z AUTO 11007KT 3SM -RA OVC004 18/17 A3011 RMK AO2 T01750170
KAJR 230655Z AUTO 10008KT 1 3/4SM -RA OVC004 18/17 A3012 RMK AO2 T01750170
KAJR 230635Z AUTO 09009KT 2SM -RA OVC004 18/17 A3012 RMK AO2 T01750170
KAJR 230615Z AUTO 10008G14KT 2SM -RA OVC002 18/17 A3014 RMK AO2 T01750170
KAJR 230555Z AUTO 10007KT 1 1/4SM -RA OVC002 17/17 A3015 RMK AO2 T01730170 10202 20173 402430132
KAJR 230535Z AUTO 09007G15KT 1 1/4SM RA OVC002 17/17 A3015 RMK AO2 T01730170
KAJR 230515Z AUTO 10007KT 1 3/4SM RA OVC002 17/17 A3016 RMK AO2 T01730170
KAJR 230455Z AUTO 09009KT 2SM -RA OVC004 17/17 A3017 RMK AO2 T01730168
KAJR 230435Z AUTO 10009G16KT 2 1/2SM -RA OVC004 17/17 A3018 RMK AO2 T01730167
KAJR 230415Z AUTO 10009G15KT 3SM -RA OVC008 17/17 A3019 RMK AO2 T01740165
KAJR 230355Z AUTO 09008KT 10SM DZ OVC010 18/16 A3020 RMK AO2 T01770163
KAJR 230335Z AUTO 09010KT 7SM OVC012 18/16 A3021 RMK AO2 T01800162
KAJR 230315Z AUTO 09007KT 10SM SCT009 OVC017 18/16 A3021 RMK AO2 T01800163
KAJR 230255Z AUTO 09007G17KT 10SM SCT009 OVC020 18/16 A3021 RMK AO2 T01800164
KAJR 230235Z AUTO 10010G14KT 10SM BKN007 OVC020 18/17 A3022 RMK AO2 T01810165
KAJR 230215Z AUTO 11010KT 7SM BKN007 BKN011 OVC018 18/17 A3021 RMK AO2 T01800165
KAJR 230155Z AUTO 11009G14KT 7SM OVC009 18/17 A3021 RMK AO2 T01810165
KAJR 230135Z AUTO 10007KT 10SM BKN009 OVC014 18/17 A3021 RMK AO2 T01820166
KAJR 230115Z AUTO 13006KT 7SM RA OVC014 19/17 A3022 RMK AO2 T01880165
KAJR 230055Z AUTO 12006KT 10SM OVC016 19/16 A3021 RMK AO2 T01900163
KAJR 230035Z AUTO 11009KT 7SM OVC020 19/16 A3021 RMK AO2 T01940160
KAJR 230015Z AUTO 12009KT 5SM HZ BKN023 OVC029 20/15 A3021 RMK AO2 T02000153
KAJR 222355Z AUTO 11006KT 7SM OVC031 20/15 A3021 RMK AO2 T02020151 10243 20202
KAJR 222335Z AUTO 11004KT 10SM OVC033 21/15 A3021 RMK AO2 T02050150
KAJR 222315Z AUTO 11005G15KT 10SM OVC035 21/15 A3021 RMK AO2 T02060150
KAJR 222255Z AUTO 08006KT 10SM OVC037 21/15 A3020 RMK AO2 T02050154
KAJR 222235Z AUTO 08005KT 10SM OVC039 21/16 A3021 RMK AO2 T02070155
KAJR 222215Z AUTO 08004KT 7SM BKN041 OVC048 21/16 A3021 RMK AO2 T02100155
KAJR 222155Z AUTO 08007KT 10SM BKN043 BKN050 OVC060 21/16 A3020 RMK AO2 T02120156
KAJR 222135Z AUTO 07006KT 10SM BKN047 OVC060 22/16 A3021 RMK AO2 T02150156
KAJR 222115Z AUTO 08003KT 5SM HZ OVC046 22/16 A3021 RMK AO2 T02160156
KAJR 222055Z AUTO 08006KT 7SM BKN046 OVC055 22/15 A3021 RMK AO2 T02180154
KAJR 222035Z AUTO 07006KT 7SM SCT030 BKN046 OVC055 22/15 A3022 RMK AO2 T02200154
KAJR 222015Z AUTO 09004KT 2SM HZ BKN030 BKN040 OVC046 22/15 A3022 RMK AO2 VIS 1 1/4V4 T02180153
KAJR 221955Z AUTO 11008KT 7SM SCT030 SCT046 BKN055 23/15 A3022 RMK AO2 T02260153
KAJR 221935Z AUTO 08007KT 7SM SCT028 SCT041 BKN050 24/16 A3022 RMK AO2 T02430158
KAJR 221915Z AUTO 10008KT 7SM SCT028 BKN041 OVC050 22/16 A3024 RMK AO2 T02160156
KAJR 221855Z AUTO 12006KT 7SM SCT028 SCT040 BKN050 22/16 A3024 RMK AO2 T02190155
KAJR 221835Z AUTO 11006KT 7SM SCT035 SCT044 OVC050 22/16 A3025 RMK AO2 T02200157
KAJR 221815Z AUTO 10006KT 7SM SCT035 SCT043 OVC048 21/16 A3026 RMK AO2 T02130156
KAJR 221755Z AUTO 10009KT 060V120 7SM SCT029 SCT037 OVC050 21/16 A3026 RMK AO2 T02120155 10217 20148
KAJR 221735Z AUTO 12006KT 7SM SCT026 SCT031 OVC050 21/16 A3028 RMK AO2 T02140156
KAJR 221715Z AUTO 12009KT 7SM SCT022 SCT027 OVC050 21/15 A3028 RMK AO2 T02100154
KAJR 221655Z AUTO 12009G15KT 090V170 5SM HZ SCT022 OVC050 21/16 A3029 RMK AO2 T02140156
KAJR 221635Z AUTO 12007G15KT 7SM OVC050 22/15 A3030 RMK AO2 T02150153
KAJR 221615Z AUTO 11009KT 5SM HZ OVC050 21/15 A3031 RMK AO2 T02060153
KAJR 221555Z AUTO 10010G15KT 7SM SCT028 SCT041 OVC050 20/15 A3031 RMK AO2 T01980152
KAJR 221535Z AUTO 12008KT 7SM BKN028 BKN038 OVC055 19/15 A3032 RMK AO2 T01920150
KAJR 221515Z AUTO 13004KT 7SM BKN030 BKN036 BKN044 20/15 A3032 RMK AO2 T01950150
KAJR 221455Z AUTO 07006KT 7SM BKN030 BKN039 BKN050 19/15 A3033 RMK AO2 T01860146
KAJR 221435Z AUTO 10007KT 7SM BKN011 BKN031 OVC050 19/15 A3033 RMK AO2 T01870148
KAJR 221415Z AUTO 11007KT 7SM OVC011 18/15 A3034 RMK AO2 T01770145
KAJR 221355Z AUTO 11006KT 7SM BKN011 BKN034 BKN043 18/14 A3034 RMK AO2 T01770141
KAJR 221335Z AUTO 08006KT 7SM BKN035 BKN049 18/14 A3034 RMK AO2 T01770138
KAJR 221315Z AUTO 07004KT 7SM BKN037 BKN047 17/14 A3035 RMK AO2 T01700135
KAJR 221255Z AUTO 07006KT 5SM HZ SCT040 BKN047 16/13 A3034 RMK AO2 T01640131
KAJR 221235Z AUTO 07006KT 7SM BKN042 BKN048 16/13 A3033 RMK AO2 T01600130
KAJR 221215Z AUTO 09005KT 7SM SCT040 15/13 A3032 RMK AO2 T01510127
KAJR 221155Z AUTO 09006KT 7SM CLR 15/13 A3031 RMK AO2 T01500126 10160 20132
KAJR 221135Z AUTO 08007KT 7SM CLR 15/13 A3030 RMK AO2 T01500125
KAJR 221115Z AUTO 08008KT 7SM CLR 15/12 A3030 RMK AO2 T01510120
KAJR 221055Z AUTO 08005KT 7SM CLR 15/12 A3031 RMK AO2 T01510120
KAJR 221035Z AUTO 08007KT 7SM CLR 15/12 A3030 RMK AO2 T01540115
KAJR 221015Z AUTO 08006KT 7SM SCT030 SCT036 15/11 A3029 RMK AO2 T01540110
KAJR 220955Z AUTO 09005KT 7SM BKN028 16/11 A3029 RMK AO2 T01550108
KAJR 220935Z AUTO 08005KT 7SM SCT028 BKN036 16/11 A3030 RMK AO2 T01560107
KAJR 220915Z AUTO 08006KT 7SM SCT031 SCT039 16/11 A3030 RMK AO2 T01580106
KAJR 220855Z AUTO 09004KT 10SM SCT022 SCT033 SCT042 16/11 A3029 RMK AO2 T01570106
KAJR 220835Z AUTO 08005KT 7SM SCT022 SCT033 BKN049 14/10 A3030 RMK AO2 T01360103
KAJR 220815Z AUTO 08005KT 7SM SCT037 15/10 A3030 RMK AO2 T01480100
KAJR 220755Z AUTO 09005KT 7SM CLR 15/10 A3030 RMK AO2 T01500100
KAJR 220735Z AUTO 09005KT 7SM CLR 14/10 A3030 RMK AO2 T01440100
KAJR 220715Z AUTO 08006KT 10SM CLR 14/10 A3031 RMK AO2 T01400101
KAJR 220655Z AUTO 07006KT 7SM CLR 15/10 A3031 RMK AO2 T01470101
KAJR 220635Z AUTO 07006KT 7SM CLR 14/10 A3031 RMK AO2 T01430104
KAJR 220615Z AUTO 07006KT 7SM CLR 15/11 A3031 RMK AO2 T01460105
KAJR 220555Z AUTO 08006KT 10SM CLR 15/11 A3031 RMK AO2 T01450105 10185 20138 402280072
KAJR 220535Z AUTO 07007KT 7SM CLR 14/11 A3032 RMK AO2 T01390109